Athboy, South Dakota
Current Conditions -  °F | °C
As of 3:53 PM on Wednesday 22 Oct 2014 (Local Time) from KHEI Reporting Station
Clear Clear  
Wind Chill: 17°   Ceiling: Unl
Heat Index: 17°   Visibility: 10mi
Dew Point: -1°   Wind: 20mph
Humidity: 30%   Direction: 280°W
Pressure: 29.92"   Gusts: 28mph
Location:  45.2919°N, 102.298°W
Report Text: KHEI 222153Z AUTO 28017G24KT 10SM CLR 17/M01 A2992 RMK AO2 PK WND 28028/2109 SLP129 T01721006
Loading
Personal Weather Stations






























Interactive Weather Map
Tropical Storm Tracking
New forecast layout! Learn more

10-Day Weather Forecast

Advertisements
Track Severe Weather on mobile